Terminal Aerodrome Forecast
Issued by NWS

Home | Current Version | Previous Version | Text Only | Print | Product List | Glossary On
Versions: 1 2 3 4 5 6 7 8 9 10 11 12 13 14 15 16 17 18 19 20 21 22 23 24 25 26 27 28 29 30 31 32 33 34
000
FTUS43 KLOT 012320
TAFDPA
TAF
KDPA 012320Z 0200/0224 19015G23KT P6SM FEW250
     FM020400 19014KT P6SM SCT060 BKN250 WS020/20052KT
     FM021000 20014KT 6SM -SHRA VCTS SCT020 BKN040CB WS020/20048KT
     FM021300 21014KT P6SM VCSH SCT010 OVC015
     FM021600 23014G20KT 5SM -SHRA VCTS SCT008 BKN012 OVC020CB
      TEMPO 0216/0219 2SM SHRA BKN008
     FM021900 30013G19KT P6SM SCT050=

USA.gov is the U.S. government's official web portal to all federal, state and local government web resources and services.